Mount Enterprise, Texas
Current Conditions -  °F | °C
As of 1:15 PM on Friday 28 Nov 2014 (Local Time) from KRFI Reporting Station
Clear Clear  
Wind Chill: 64°   Ceiling: Unl
Heat Index: 64°   Visibility: 10mi
Dew Point: 46°   Wind: 10mph
Humidity: 53%   Direction: 200°SSW
Pressure: 30.2"   Gusts: NA
Location:  31.92°N, 94.68°W
Report Text: KRFI 281915Z AUTO 20009KT 170V230 10SM CLR 18/08 A3020 RMK AO2 T01770079
Loading
Personal Weather Stations






























Interactive Weather Map New forecast layout! Learn more

10-Day Weather Forecast

Advertisements
Track Severe Weather on mobile